CW6353 Weather Reports


time (UTC)temp
C
wind
direction
speed
KPH
gust
KPH
rain 1hr
cm
rain 24hr
cm
rain mn
cm
humidity
%
barometer
mb
20211017151019 15 15 22.5 37.0 0.00 0.00 0.00 49 1024.2
20211017150519 15 335 14.5 35.4 0.00 0.00 0.00 55 1024.2
20211017150022 15 346 16.1 35.4 0.00 0.00 0.00 53 1024.2
20211017145532 15 14 19.3 32.2 0.00 0.00 0.00 54 1024.2
20211017145013 14 19 14.5 29.0 0.00 0.00 0.00 57 1024.3
20211017144554 15 34 19.3 29.0 0.00 0.00 0.00 55 1024.2
20211017144017 15 15 12.9 27.4 0.00 0.00 0.00 56 1024.3
20211017143511 15 5 14.5 27.4 0.00 0.00 0.00 57 1024.2
20211017143035 14 51 6.4 25.7 0.00 0.00 0.00 60 1024.2
20211017142514 14 14 9.7 25.7 0.00 0.00 0.00 60 1024.2
20211017142008 13 10 8.0 22.5 0.00 0.00 0.00 61 1024.2
20211017141517 13 24 9.7 22.5 0.00 0.00 0.00 60 1024.2
20211017141023 13 334 9.7 17.7 0.00 0.00 0.00 62 1024.0
20211017140510 13 307 4.8 19.3 0.00 0.00 0.00 65 1024.1
20211017140006 13 344 9.7 19.3 0.00 0.00 0.00 63 1023.9
20211017135508 13 345 6.4 19.3 0.00 0.03 0.00 65 1023.9
20211017135010 12 28 8.0 24.1 0.00 0.03 0.00 63 1023.9
20211017134101 12 360 11.3 22.5 0.00 0.03 0.00 65 1023.7
20211017133559 12 11 11.3 22.5 0.00 0.03 0.00 66 1023.6
20211017133135 12 29 9.7 22.5 0.00 0.03 0.00 68 1023.6
20211017132058 11 307 4.8 17.7 0.00 0.03 0.00 70 1023.5
20211017131652 11 342 8.0 17.7 0.00 0.03 0.00 69 1023.5
20211017131052 11 308 4.8 19.3 0.00 0.03 0.00 70 1023.4
20211017130550 11 306 4.8 22.5 0.00 0.03 0.00 71 1023.3
20211017130126 11 5 8.0 22.5 0.00 0.03 0.00 73 1023.3
20211017125600 10 342 8.0 17.7 0.00 0.03 0.00 73 1023.2
20211017125050 10 320 6.4 17.7 0.00 0.03 0.00 75 1023.2
20211017124556 10 318 8.0 17.7 0.00 0.03 0.00 76 1023.0
20211017124044 9 311 8.0 17.7 0.00 0.03 0.00 78 1022.9
20211017123547 8 345 6.4 16.1 0.00 0.03 0.00 79 1022.9
20211017123130 8 13 8.0 16.1 0.00 0.03 0.00 79 1023.0
20211017122541 8 347 4.8 16.1 0.00 0.03 0.00 80 1023.0
20211017122041 8 313 6.4 16.1 0.00 0.03 0.00 80 1023.0
20211017121609 8 338 4.8 14.5 0.00 0.03 0.00 81 1022.9
20211017121046 8 320 1.6 16.1 0.00 0.03 0.00 81 1022.9
20211017120547 8 319 8.0 16.1 0.00 0.03 0.00 81 1022.8
20211017120054 8 330 3.2 14.5 0.00 0.03 0.00 81 1022.7
20211017115605 8 347 4.8 14.5 0.00 0.03 0.00 81 1022.7
20211017115059 8 5 6.4 16.1 0.00 0.03 0.00 81 1022.7
20211017114605 8 5 6.4 16.1 0.00 0.03 0.00 81 1022.6
20211017114046 8 331 8.0 16.1 0.00 0.03 0.00 81 1022.6
20211017113537 8 338 6.4 16.1 0.00 0.03 0.00 81 1022.5
20211017113127 8 335 6.4 14.5 0.00 0.03 0.00 81 1022.6
20211017112542 8 330 1.6 14.5 0.00 0.03 0.00 81 1022.6
20211017112057 8 333 4.8 16.1 0.00 0.03 0.00 81 1022.6
20211017111544 8 5 6.4 17.7 0.00 0.03 0.00 81 1022.5
20211017111059 8 311 6.4 19.3 0.00 0.03 0.00 81 1022.5
20211017110537 8 347 8.0 19.3 0.00 0.03 0.00 81 1022.5
20211017110053 8 325 6.4 16.1 0.00 0.03 0.00 81 1022.5
20211017105536 8 10 6.4 16.1 0.00 0.03 0.00 80 1022.6
20211017105038 8 338 6.4 14.5 0.00 0.03 0.00 81 1022.6
20211017104548 8 325 4.8 14.5 0.00 0.03 0.00 81 1022.5
20211017104039 8 347 6.4 14.5 0.00 0.03 0.00 80 1022.5
20211017103535 8 319 6.4 16.1 0.00 0.03 0.00 80 1022.5
20211017103047 8 325 9.7 17.7 0.00 0.03 0.00 80 1022.4
20211017102534 8 315 6.4 17.7 0.00 0.03 0.00 80 1022.4
20211017102033 8 345 8.0 17.7 0.00 0.03 0.00 80 1022.4
20211017101558 8 324 9.7 17.7 0.00 0.03 0.00 80 1022.2
20211017101035 8 325 6.4 19.3 0.00 0.03 0.00 80 1022.2
20211017100532 8 315 4.8 17.7 0.00 0.03 0.00 81 1022.2
20211017100049 8 346 8.0 20.9 0.00 0.03 0.00 81 1022.1
20211017095041 8 306 9.7 19.3 0.00 0.03 0.00 81 1022.0
20211017094557 8 347 6.4 17.7 0.00 0.03 0.00 82 1022.0
20211017094030 8 317 9.7 17.7 0.00 0.03 0.00 82 1021.9
20211017093530 8 327 8.0 17.7 0.00 0.03 0.00 83 1021.8
20211017093042 8 296 6.4 16.1 0.00 0.03 0.00 83 1022.0
20211017092529 8 304 6.4 16.1 0.00 0.03 0.00 83 1021.9
20211017092053 8 298 6.4 16.1 0.00 0.03 0.00 83 1022.0
20211017091546 8 323 6.4 16.1 0.00 0.03 0.00 84 1022.0
20211017091029 8 331 4.8 17.7 0.00 0.03 0.00 85 1022.0
20211017090529 8 323 6.4 19.3 0.00 0.03 0.00 86 1022.0
20211017090122 8 315 8.0 17.7 0.00 0.03 0.00 87 1022.0
20211017085546 7 309 9.7 17.7 0.00 0.28 0.00 88 1022.0
20211017085036 7 313 8.0 16.1 0.00 0.28 0.00 89 1022.1
20211017084600 7 306 3.2 12.9 0.00 0.28 0.00 89 1022.2
20211017084037 7 313 1.6 8.0 0.00 0.28 0.00 89 1022.1
20211017083555 7 342 1.6 6.4 0.00 0.28 0.00 88 1022.1
20211017083102 7 319 0.0 4.8 0.00 0.28 0.00 89 1022.1
20211017082525 7 286 1.6 12.9 0.00 0.28 0.00 89 1022.1
20211017082025 7 268 1.6 12.9 0.00 0.28 0.00 89 1022.2
20211017081527 7 251 3.2 8.0 0.00 0.28 0.00 89 1022.2
20211017081024 8 271 3.2 8.0 0.00 0.28 0.00 88 1022.1
20211017080523 8 299 1.6 8.0 0.00 0.28 0.00 88 1022.1
20211017080034 8 272 1.6 9.7 0.00 0.28 0.00 87 1022.0
20211017075544 8 312 3.2 8.0 0.00 0.28 0.00 87 1022.1
20211017075036 8 295 1.6 8.0 0.00 0.28 0.00 87 1022.2
20211017074548 8 294 1.6 8.0 0.00 0.28 0.00 87 1022.2
20211017074022 8 300 1.6 8.0 0.00 0.28 0.00 86 1022.2
20211017073522 8 277 3.2 6.4 0.00 0.28 0.00 86 1022.1
20211017073030 8 314 1.6 8.0 0.00 0.28 0.00 86 1022.2
20211017072522 8 304 1.6 8.0 0.00 0.28 0.00 86 1022.2
20211017072024 8 294 3.2 8.0 0.00 0.28 0.00 86 1022.2
20211017071535 8 294 3.2 9.7 0.00 0.28 0.00 87 1022.2
20211017071036 8 306 6.4 9.7 0.00 0.28 0.00 87 1022.3
20211017070521 8 295 4.8 11.3 0.00 0.28 0.00 88 1022.3
20211017070055 8 291 4.8 9.7 0.00 0.28 0.00 88 1022.2
20211017065522 8 275 4.8 11.3 0.00 0.28 0.00 88 1022.2
20211017065043 8 275 3.2 11.3 0.00 0.28 0.00 88 1022.3
20211017064559 8 289 3.2 11.3 0.00 0.28 0.00 89 1022.2
20211017064025 7 271 3.2 6.4 0.00 0.28 0.00 89 1022.3
20211017063519 7 259 1.6 4.8 0.00 0.28 0.00 89 1022.3
20211017063040 7 256 0.0 4.8 0.00 0.28 0.00 89 1022.3
20211017062518 8 235 0.0 4.8 0.00 0.28 0.00 89 1022.2
20211017062017 8 231 1.6 4.8 0.00 0.28 0.00 88 1022.2
20211017061528 8 234 0.0 1.6 0.00 0.28 0.00 86 1022.2
20211017061016 8 252 0.0 3.2 0.00 0.28 0.00 85 1022.2
20211017060512 9 261 0.0 6.4 0.00 0.28 0.00 84 1022.2
20211017060020 9 300 0.0 6.4 0.00 0.28 0.00 82 1022.1
20211017055511 9 301 3.2 11.3 0.00 0.28 0.00 83 1022.1
20211017055011 8 315 4.8 11.3 0.00 0.28 0.00 84 1022.0
20211017054518 9 317 6.4 12.9 0.00 0.28 0.00 84 1022.0
20211017054011 9 321 6.4 12.9 0.00 0.28 0.00 84 1022.0
20211017053536 9 313 6.4 9.7 0.00 0.28 0.00 82 1022.1
20211017053010 9 299 0.0 8.0 0.00 0.28 0.00 82 1022.2
20211017052507 9 307 1.6 8.0 0.00 0.28 0.00 82 1022.2
20211017052006 9 301 3.2 8.0 0.00 0.28 0.00 81 1022.2
20211017051538 9 278 1.6 9.7 0.00 0.28 0.00 81 1022.1
20211017051011 9 311 6.4 12.9 0.00 0.28 0.00 81 1022.0
20211017050509 9 319 6.4 12.9 0.00 0.28 0.00 81 1022.0
20211017050005 9 307 1.6 8.0 0.00 0.28 0.00 81 1022.0
20211017045511 10 303 3.2 9.7 0.00 0.28 0.28 80 1022.0
20211017045003 10 317 3.2 14.5 0.00 0.28 0.28 80 1021.9
20211017044506 10 315 4.8 14.5 0.00 0.28 0.28 80 1021.9
20211017044141 10 311 3.2 8.0 0.00 0.28 0.28 79 1021.9
20211017043634 10 294 3.2 9.7 0.00 0.28 0.28 78 1022.0
20211017042636 10 277 4.8 12.9 0.00 0.28 0.28 76 1022.0
20211017042057 10 316 4.8 9.7 0.00 0.28 0.28 76 1021.9
20211017041711 11 306 3.2 12.9 0.00 0.28 0.28 75 1021.9
20211017041056 11 300 6.4 12.9 0.00 0.28 0.28 74 1022.0
20211017040628 11 306 4.8 12.9 0.00 0.28 0.28 74 1021.9
20211017040138 11 294 6.4 14.5 0.00 0.28 0.28 74 1021.9
20211017035612 11 323 8.0 14.5 0.00 0.28 0.28 73 1021.9
20211017035056 11 305 8.0 14.5 0.00 0.28 0.28 73 1021.8
20211017034634 11 300 9.7 16.1 0.00 0.28 0.28 73 1021.9
20211017034057 11 319 9.7 16.1 0.00 0.28 0.28 73 1021.9
20211017033554 11 306 9.7 17.7 0.00 0.28 0.28 73 1021.8
20211017033112 11 321 9.7 17.7 0.00 0.28 0.28 74 1021.9
20211017032602 11 309 8.0 17.7 0.00 0.28 0.28 74 1021.8
20211017032109 11 316 11.3 17.7 0.00 0.28 0.28 74 1021.8
20211017031722 11 318 11.3 16.1 0.00 0.28 0.28 75 1021.9
20211017031051 11 317 8.0 14.5 0.00 0.28 0.28 76 1021.9
20211017030549 10 315 8.0 14.5 0.00 0.28 0.28 76 1021.9
20211017030126 10 304 6.4 11.3 0.00 0.28 0.28 76 1022.0
20211017025609 11 287 4.8 9.7 0.00 0.28 0.28 76 1021.8
20211017025050 11 306 4.8 9.7 0.00 0.28 0.28 76 1021.9
20211017024627 11 296 4.8 9.7 0.00 0.28 0.28 76 1021.9
20211017024045 11 306 3.2 8.0 0.00 0.28 0.28 76 1021.9
20211017023607 11 303 3.2 9.7 0.00 0.28 0.28 71 1021.8
20211017023147 11 304 3.2 9.7 0.00 0.28 0.28 72 1021.8
20211017022543 11 304 3.2 9.7 0.00 0.28 0.28 71 1021.6
20211017022043 11 313 4.8 9.7 0.00 0.28 0.28 69 1021.6
20211017021620 11 326 4.8 14.5 0.00 0.28 0.28 69 1021.5
20211017021041 11 312 6.4 14.5 0.00 0.28 0.28 69 1021.5
20211017020542 11 310 9.7 14.5 0.00 0.28 0.28 69 1021.4
20211017020056 11 316 9.7 16.1 0.00 0.28 0.28 69 1021.4
20211017015542 11 315 8.0 16.1 0.00 0.28 0.28 70 1021.4
20211017015044 11 313 8.0 14.5 0.00 0.28 0.28 69 1021.4
20211017014701 11 290 6.4 9.7 0.00 0.28 0.28 69 1021.4
20211017014039 11 324 4.8 9.7 0.00 0.28 0.28 67 1021.3
20211017013537 11 317 4.8 9.7 0.00 0.28 0.28 68 1021.3
20211017013039 11 308 6.4 9.7 0.00 0.28 0.28 67 1021.2
20211017012546 12 304 4.8 9.7 0.00 0.28 0.28 67 1021.2
20211017012038 12 320 3.2 11.3 0.00 0.28 0.28 67 1021.2
20211017011559 12 324 4.8 12.9 0.00 0.28 0.28 66 1021.1
20211017011034 12 311 3.2 12.9 0.00 0.28 0.28 66 1021.0
20211017010534 12 336 4.8 12.9 0.00 0.28 0.28 66 1021.1
20211017010127 12 311 4.8 16.1 0.00 0.28 0.28 67 1021.0
20211017005531 12 309 6.4 16.1 0.00 0.28 0.28 67 1021.0
20211017005034 12 310 4.8 14.5 0.00 0.28 0.28 67 1021.0
20211017004559 12 317 8.0 14.5 0.00 0.28 0.28 67 1020.9
20211017004037 12 311 4.8 12.9 0.00 0.28 0.28 67 1020.8
20211017003528 12 322 4.8 9.7 0.00 0.28 0.28 68 1021.0
20211017003106 12 321 4.8 8.0 0.00 0.28 0.28 67 1020.9
20211017002528 12 304 3.2 8.0 0.00 0.28 0.28 66 1020.9
20211017002025 12 324 3.2 9.7 0.00 0.28 0.28 65 1020.8
20211017001528 12 329 4.8 9.7 0.00 0.28 0.28 64 1020.9
20211017001026 12 332 4.8 8.0 0.00 0.28 0.28 63 1020.8
20211017000522 13 312 4.8 8.0 0.00 0.28 0.28 62 1020.8
20211017000033 13 317 3.2 8.0 0.00 0.28 0.28 61 1020.6
20211016235518 13 339 4.8 12.9 0.00 0.28 0.28 60 1020.5
20211016235035 13 321 4.8 14.5 0.00 0.28 0.28 58 1020.4
20211016234532 14 306 4.8 14.5 0.00 0.28 0.28 57 1020.4
20211016234015 14 5 6.4 14.5 0.00 0.28 0.28 55 1020.5
20211016233514 14 307 4.8 19.3 0.00 0.28 0.28 54 1020.3
20211016233018 15 315 6.4 19.3 0.00 0.28 0.28 54 1020.1
20211016232519 15 319 8.0 19.3 0.00 0.28 0.28 52 1020.1
20211016232020 15 320 9.7 19.3 0.00 0.28 0.28 52 1020.0
20211016231516 15 346 8.0 20.9 0.00 0.28 0.28 51 1020.0
20211016231013 15 320 12.9 22.5 0.00 0.28 0.28 50 1019.9
20211016230524 16 313 9.7 22.5 0.00 0.28 0.28 48 1019.8
20211016230015 16 319 11.3 22.5 0.00 0.28 0.28 49 1019.8
20211016225519 16 304 11.3 24.1 0.00 0.28 0.28 47 1019.8
20211016225012 17 319 14.5 24.1 0.00 0.28 0.28 46 1019.8
20211016224513 17 306 11.3 27.4 0.00 0.28 0.28 44 1019.8
20211016224011 17 323 12.9 27.4 0.00 0.28 0.28 44 1019.8
20211016223511 17 310 9.7 22.5 0.00 0.28 0.28 44 1019.7
20211016223011 18 336 9.7 24.1 0.00 0.28 0.28 45 1019.6
20211016222514 18 288 11.3 19.3 0.00 0.28 0.28 44 1019.6
20211016222011 18 311 11.3 20.9 0.00 0.28 0.28 45 1019.5
20211016221531 18 297 4.8 27.4 0.00 0.28 0.28 45 1019.6
20211016221013 18 313 12.9 29.0 0.00 0.28 0.28 43 1019.5
20211016220508 18 346 19.3 29.0 0.00 0.28 0.28 43 1019.5
20211016220011 18 319 14.5 27.4 0.00 0.28 0.28 44 1019.5
20211016215508 19 329 12.9 27.4 0.00 0.28 0.28 43 1019.4
20211016215008 19 305 12.9 30.6 0.00 0.28 0.28 45 1019.3
20211016214518 19 26 9.7 30.6 0.00 0.28 0.28 45 1019.1
20211016214008 19 330 16.1 29.0 0.00 0.28 0.28 42 1019.3
20211016213511 19 5 12.9 29.0 0.00 0.28 0.28 44 1019.2
20211016213010 19 337 17.7 29.0 0.00 0.28 0.28 42 1019.2
20211016212508 19 323 9.7 29.0 0.00 0.28 0.28 44 1019.1
20211016212008 19 338 19.3 30.6 0.00 0.28 0.28 42 1019.1
20211016211507 19 14 17.7 32.2 0.00 0.28 0.28 42 1019.1
20211016211021 20 316 19.3 32.2 0.00 0.28 0.28 42 1019.2
20211016210517 20 328 14.5 30.6 0.00 0.28 0.28 43 1019.1
20211016210024 20 298 12.9 30.6 0.00 0.28 0.28 43 1019.1
20211016205514 20 346 14.5 30.6 0.00 0.28 0.28 44 1019.1
20211016205006 20 34 19.3 30.6 0.00 0.28 0.28 42 1019.0
20211016204009 20 333 8.0 30.6 0.00 0.28 0.28 45 1019.2
20211016203505 20 331 16.1 30.6 0.00 0.28 0.28 43 1019.2
20211016203004 20 317 16.1 29.0 0.00 0.28 0.28 43 1019.0
20211016202506 20 328 12.9 29.0 0.00 0.28 0.28 44 1019.0
20211016202005 20 342 17.7 29.0 0.00 0.28 0.28 42 1019.2
20211016201502 20 342 16.1 25.7 0.00 0.28 0.28 43 1019.2
20211016201006 20 304 16.1 29.0 0.00 0.28 0.28 44 1019.2
20211016200501 20 313 16.1 29.0 0.00 0.28 0.28 45 1019.1
20211016200001 20 320 16.1 25.7 0.00 0.28 0.28 47 1019.2
20211016195503 20 317 9.7 30.6 0.00 0.28 0.28 49 1019.2
20211016195001 20 324 12.9 33.8 0.00 0.28 0.28 46 1019.1
20211016194502 20 309 17.7 33.8 0.00 0.28 0.28 46 1019.0
20211016193604 19 296 20.9 40.2 0.00 0.28 0.28 45 1019.1
20211016193119 19 296 19.3 40.2 0.00 0.28 0.28 46 1019.1
20211016192614 20 322 25.7 40.2 0.00 0.28 0.28 45 1019.2
20211016192112 20 316 12.9 32.2 0.00 0.28 0.28 49 1019.2
20211016191640 20 296 19.3 30.6 0.00 0.28 0.28 47 1019.0
20211016191059 20 319 12.9 30.6 0.00 0.28 0.28 49 1019.1
20211016190557 20 300 17.7 30.6 0.00 0.28 0.28 50 1019.1
20211016190123 19 298 11.3 30.6 0.00 0.28 0.28 52 1019.1
20211016185557 19 319 16.1 30.6 0.00 0.28 0.28 51 1019.0
20211016185057 20 290 16.1 30.6 0.00 0.28 0.28 49 1018.9
20211016184753 20 324 16.1 32.2 0.00 0.28 0.28 52 1019.1
20211016184056 20 322 9.7 32.2 0.00 0.28 0.28 52 1019.1
20211016183559 20 326 19.3 30.6 0.00 0.28 0.28 50 1019.3
20211016183114 20 303 20.9 32.2 0.00 0.28 0.28 49 1019.3
20211016182555 20 326 12.9 32.2 0.00 0.28 0.28 50 1019.4
20211016182054 20 346 17.7 30.6 0.00 0.28 0.28 53 1019.4
20211016181633 20 308 12.9 27.4 0.00 0.28 0.28 56 1019.5
20211016181052 19 320 19.3 33.8 0.00 0.28 0.28 56 1019.5
20211016180553 19 287 20.9 37.0 0.00 0.28 0.28 57 1019.6
20211016180135 19 309 14.5 37.0 0.00 0.28 0.28 55 1019.7
20211016175551 19 307 20.9 35.4 0.00 0.28 0.28 57 1019.7
20211016175103 19 319 24.1 35.4 0.00 0.28 0.28 59 1019.7
20211016174641 18 292 17.7 37.0 0.00 0.28 0.28 60 1019.7
20211016174053 19 275 22.5 32.2 0.00 0.28 0.28 57 1019.8
20211016173557 18 346 19.3 30.6 0.00 0.28 0.28 62 1019.8
20211016173138 18 289 17.7 30.6 0.00 0.28 0.28 62 1019.9
20211016172601 18 305 16.1 30.6 0.00 0.28 0.28 64 1019.8
20211016172051 19 313 16.1 33.8 0.00 0.28 0.28 63 1019.9
20211016171604 19 311 19.3 33.8 0.00 0.28 0.28 64 1019.9
20211016171050 18 12 14.5 27.4 0.00 0.28 0.28 65 1019.8
20211016170547 18 313 14.5 33.8 0.00 0.28 0.28 66 1019.8
20211016170056 18 335 17.7 29.0 0.00 0.28 0.28 67 1020.0
20211016165547 18 304 11.3 32.2 0.00 0.28 0.28 67 1019.9
20211016165103 18 310 16.1 32.2 0.00 0.28 0.28 67 1019.9
20211016164628 18 311 11.3 24.1 0.00 0.28 0.28 70 1019.9
20211016164045 18 297 12.9 27.4 0.00 0.28 0.28 70 1020.0
20211016163615 18 333 12.9 29.0 0.00 0.28 0.28 68 1019.9
20211016163126 18 309 17.7 29.0 0.00 0.28 0.28 69 1020.0
20211016162544 18 323 16.1 27.4 0.00 0.28 0.28 71 1019.9
20211016162044 17 310 12.9 25.7 0.00 0.28 0.28 72 1020.1
20211016161613 17 5 11.3 33.8 0.00 0.28 0.28 73 1020.2
20211016161049 17 5 20.9 33.8 0.00 0.28 0.28 71 1020.0
20211016160548 17 321 17.7 29.0 0.00 0.28 0.28 72 1019.9
20211016160112 16 341 14.5 29.0 0.00 0.28 0.28 75 1019.8
20211016155542 16 302 14.5 33.8 0.00 0.28 0.28 78 1019.9
20211016155043 16 319 12.9 38.6 0.00 0.28 0.28 77 1020.0
20211016154603 16 293 17.7 38.6 0.00 0.28 0.28 77 1020.0
20211016154039 15 26 12.9 33.8 0.00 0.28 0.28 79 1019.9
20211016153558 15 314 19.3 33.8 0.00 0.28 0.28 80 1019.9
20211016153046 15 323 12.9 41.8 0.00 0.28 0.28 81 1019.9
20211016152550 15 331 19.3 41.8 0.00 0.28 0.28 82 1019.9
20211016152040 15 319 19.3 30.6 0.00 0.28 0.28 84 1019.9
20211016151644 15 291 17.7 30.6 0.00 0.28 0.28 85 1019.8